WABB/BIK METAR and TAF weather

Enter ICAO airport designator
Station Type Date Time Source
WABB METAR 2022/12/04 11:30 UTC NOAA

WABB 041130Z 29006KT 120V290 9999 FEW018 27/25 Q1007 NOSIG


Station Type Date Time Source
WABB Decoded METAR 2022/12/04 11:30 UTC NOAA

Biak / Mokmer, Indonesia (WABB) 01-11S 136-07E 11M
Dec 04, 2022 - 06:30 AM EST / 2022.12.04 1130 UTC
Wind: from the WNW (290 degrees) at 7 MPH (6 KT) (direction variable):0
Visibility: greater than 7 mile(s):0
Sky conditions: mostly clear
Temperature: 80 F (27 C)
Dew Point: 77 F (25 C)
Relative Humidity: 88%
Pressure (altimeter): 29.74 in. Hg (1007 hPa)
ob: WABB 041130Z 29006KT 120V290 9999 FEW018 27/25 Q1007 NOSIG
cycle: 11

Station Type Date Time Source
WABB TAF 2022/12/04 12:07 UTC NOAA

TAF WABB 041100Z 0412/0518 29008KT 9999 SCT018 PROB40
TEMPO 0417/0419 5000 RA
TEMPO 0423/0503 5000 RA BKN019

Example: see airport list